createdAt,value
2018-08-18T00:00:20.327Z,4.47
2018-08-18T00:02:49.319Z,4.50
2018-08-18T00:05:18.550Z,4.43
2018-08-18T00:07:47.487Z,4.40
2018-08-18T00:10:19.727Z,4.40
2018-08-18T00:12:48.589Z,4.43
2018-08-18T00:15:17.601Z,4.97
2018-08-18T00:17:46.544Z,4.37
2018-08-18T00:20:17.401Z,5.27
2018-08-18T00:22:46.380Z,5.13
2018-08-18T00:25:15.361Z,4.67
2018-08-18T00:27:44.249Z,4.83
2018-08-18T00:30:18.457Z,4.87
2018-08-18T00:32:47.357Z,5.10
2018-08-18T00:35:16.345Z,5.30
2018-08-18T00:37:45.194Z,5.07
2018-08-18T00:40:14.149Z,4.90
2018-08-18T00:42:44.157Z,4.53
2018-08-18T00:45:13.640Z,5.37
2018-08-18T00:47:42.515Z,4.50
2018-08-18T00:50:12.795Z,4.63
2018-08-18T00:52:41.927Z,4.57
2018-08-18T00:55:10.804Z,4.80
2018-08-18T00:57:39.707Z,4.70
2018-08-18T01:00:08.608Z,4.87
2018-08-18T01:02:37.469Z,4.77
2018-08-18T01:05:06.354Z,4.97
2018-08-18T01:07:35.275Z,4.80
2018-08-18T01:10:04.275Z,4.70
2018-08-18T01:12:34.008Z,4.50
2018-08-18T01:15:03.655Z,5.43
2018-08-18T01:17:32.879Z,5.63
2018-08-18T01:20:03.271Z,5.13
2018-08-18T01:22:32.193Z,5.10
2018-08-18T01:25:01.097Z,4.60
2018-08-18T01:27:30.355Z,4.40
2018-08-18T01:30:04.036Z,4.90
2018-08-18T01:32:34.047Z,4.63
2018-08-18T01:35:03.219Z,4.93
2018-08-18T01:37:32.506Z,4.60
2018-08-18T01:40:01.739Z,4.90
2018-08-18T01:42:32.377Z,4.80
2018-08-18T01:45:01.400Z,5.10
2018-08-18T01:47:30.473Z,4.90
2018-08-18T01:50:03.726Z,4.40
2018-08-18T01:52:33.274Z,4.80
2018-08-18T01:55:02.732Z,4.87
2018-08-18T01:57:32.903Z,4.90
2018-08-18T02:00:05.926Z,5.03
2018-08-18T02:02:34.841Z,4.70
2018-08-18T02:05:13.451Z,4.83
2018-08-18T02:07:42.331Z,5.00
2018-08-18T02:10:11.237Z,5.13
2018-08-18T02:12:41.170Z,5.10
2018-08-18T02:15:10.039Z,5.33
2018-08-18T02:17:38.952Z,5.03
2018-08-18T02:20:09.345Z,4.73
2018-08-18T02:22:38.214Z,5.30
2018-08-18T02:25:07.233Z,4.93
2018-08-18T02:27:36.947Z,5.30
2018-08-18T02:30:16.088Z,4.83
2018-08-18T02:32:44.970Z,4.90
2018-08-18T02:35:13.865Z,5.40
2018-08-18T02:37:42.728Z,5.53
2018-08-18T02:40:13.955Z,4.80
2018-08-18T02:42:42.868Z,5.17
2018-08-18T02:45:12.267Z,5.00
2018-08-18T02:47:41.305Z,4.97
2018-08-18T02:50:11.282Z,4.90
2018-08-18T02:52:40.199Z,4.73
2018-08-18T02:55:10.640Z,5.30
2018-08-18T02:57:41.570Z,5.20
2018-08-18T03:00:26.974Z,5.37
2018-08-18T03:02:55.922Z,5.10
2018-08-18T03:05:24.798Z,5.00
2018-08-18T03:07:53.750Z,5.37
2018-08-18T03:10:22.674Z,5.43
2018-08-18T03:12:53.061Z,5.20
2018-08-18T03:16:00.516Z,5.30
2018-08-18T03:18:51.104Z,5.53
2018-08-18T03:21:25.962Z,4.90
2018-08-18T03:24:06.343Z,5.10
2018-08-18T03:26:40.314Z,5.17
2018-08-18T03:29:10.731Z,5.20
2018-08-18T03:31:40.307Z,5.30
2018-08-18T03:34:09.470Z,5.53
2018-08-18T03:36:40.280Z,5.40
2018-08-18T03:39:12.190Z,5.20
2018-08-18T03:41:41.092Z,5.30
2018-08-18T03:44:10.017Z,5.10
2018-08-18T03:46:38.923Z,5.50
2018-08-18T03:49:07.831Z,5.60
2018-08-18T03:51:42.065Z,5.30
2018-08-18T03:54:11.179Z,5.10
2018-08-18T03:56:40.367Z,5.43
2018-08-18T03:59:09.269Z,5.40
2018-08-18T04:01:43.649Z,5.70
2018-08-18T04:04:13.447Z,6.00
2018-08-18T04:06:43.381Z,5.80
2018-08-18T04:09:18.886Z,5.83
2018-08-18T04:11:47.825Z,6.17
2018-08-18T04:14:21.525Z,5.53
2018-08-18T04:16:51.471Z,5.50
2018-08-18T04:19:21.395Z,5.67
2018-08-18T04:21:52.115Z,6.00
2018-08-18T04:24:20.996Z,6.20
2018-08-18T04:26:51.202Z,5.53
2018-08-18T04:29:21.523Z,5.60
2018-08-18T04:31:50.475Z,5.80
2018-08-18T04:34:19.353Z,5.93
2018-08-18T04:36:48.257Z,6.07
2018-08-18T04:39:17.197Z,5.30
2018-08-18T04:41:46.068Z,6.00
2018-08-18T04:44:14.942Z,5.90
2018-08-18T04:46:43.847Z,5.47
2018-08-18T04:49:12.772Z,5.90
2018-08-18T04:51:41.665Z,5.20
2018-08-18T04:54:10.576Z,5.17
2018-08-18T04:56:39.477Z,5.90
2018-08-18T04:59:08.386Z,5.60
2018-08-18T05:01:37.297Z,5.50
2018-08-18T05:04:10.403Z,5.93
2018-08-18T05:06:40.541Z,5.33
2018-08-18T05:09:10.666Z,5.40
2018-08-18T05:11:39.765Z,6.23
2018-08-18T05:14:08.544Z,5.93
2018-08-18T05:16:37.465Z,6.10
2018-08-18T05:19:06.473Z,6.40
2018-08-18T05:21:35.370Z,6.47
2018-08-18T05:24:20.278Z,6.50
2018-08-18T05:26:49.579Z,6.80
2018-08-18T05:29:18.471Z,6.97
2018-08-18T05:31:47.400Z,6.80
2018-08-18T05:34:16.350Z,7.50
2018-08-18T05:36:45.550Z,7.33
2018-08-18T05:39:14.484Z,6.87
2018-08-18T05:41:43.432Z,7.00
2018-08-18T05:44:12.286Z,7.33
2018-08-18T05:46:41.173Z,7.20
2018-08-18T05:49:14.084Z,7.53
2018-08-18T05:51:45.147Z,7.60
2018-08-18T05:54:16.479Z,7.53
2018-08-18T05:56:46.340Z,7.90
2018-08-18T05:59:15.197Z,6.97
2018-08-18T06:01:44.240Z,7.40
2018-08-18T06:04:14.287Z,7.07
2018-08-18T06:06:43.960Z,7.30
2018-08-18T06:09:14.102Z,7.77
2018-08-18T06:11:43.146Z,7.20
2018-08-18T06:14:12.773Z,7.33
2018-08-18T06:16:42.229Z,7.50
2018-08-18T06:19:11.170Z,7.60
2018-08-18T06:21:40.245Z,8.37
2018-08-18T06:24:10.390Z,8.23
2018-08-18T06:26:40.602Z,7.90
2018-08-18T06:29:09.870Z,7.57
2018-08-18T06:31:55.297Z,8.70
2018-08-18T06:34:24.285Z,8.20
2018-08-18T06:36:53.152Z,8.77
2018-08-18T06:39:22.139Z,8.07
2018-08-18T06:41:51.076Z,8.90
2018-08-18T06:44:24.373Z,8.60
2018-08-18T06:46:53.266Z,8.90
2018-08-18T06:49:22.210Z,8.10
2018-08-18T06:51:51.125Z,9.33
2018-08-18T06:54:20.032Z,8.27
2018-08-18T06:56:48.936Z,8.47
2018-08-18T06:59:17.967Z,9.07
2018-08-18T07:01:46.957Z,9.00
2018-08-18T07:04:20.052Z,8.47
2018-08-18T07:06:48.948Z,8.53
2018-08-18T07:09:17.825Z,7.73
2018-08-18T07:11:46.745Z,8.23
2018-08-18T07:14:15.667Z,8.73
2018-08-18T07:16:44.540Z,8.03
2018-08-18T07:19:13.513Z,9.00
2018-08-18T07:21:42.360Z,8.30
2018-08-18T07:24:11.293Z,8.10
2018-08-18T07:26:40.200Z,8.60
2018-08-18T07:29:09.375Z,8.47
2018-08-18T07:31:37.977Z,6.57
2018-08-18T07:34:06.964Z,7.43
2018-08-18T07:36:35.951Z,6.77
2018-08-18T07:39:06.308Z,6.93
2018-08-18T07:41:35.181Z,7.60
2018-08-18T07:44:04.096Z,7.20
2018-08-18T07:46:33.193Z,6.73
2018-08-18T07:49:02.473Z,7.73
2018-08-18T07:51:31.305Z,7.30
2018-08-18T07:54:00.163Z,5.93
2018-08-18T07:56:29.053Z,7.23
2018-08-18T07:58:57.937Z,7.23
2018-08-18T08:01:26.834Z,6.80
2018-08-18T08:03:55.733Z,5.30
2018-08-18T08:06:24.625Z,5.30
2018-08-18T08:08:53.530Z,6.73
2018-08-18T08:11:23.311Z,9.10
2018-08-18T08:13:52.247Z,8.07
2018-08-18T08:16:21.152Z,7.77
2018-08-18T08:18:50.073Z,7.53
2018-08-18T08:21:18.957Z,7.70
2018-08-18T08:23:47.899Z,9.57
2018-08-18T08:26:16.804Z,8.70
2018-08-18T08:28:45.707Z,6.93
2018-08-18T08:31:14.603Z,6.63
2018-08-18T08:33:43.497Z,7.00
2018-08-18T08:36:16.032Z,7.50
2018-08-18T08:38:56.150Z,6.47
2018-08-18T08:41:27.367Z,5.67
2018-08-18T08:43:56.261Z,4.23
2018-08-18T08:46:25.181Z,4.60
2018-08-18T08:49:00.231Z,4.53
2018-08-18T08:51:29.179Z,4.73
2018-08-18T08:53:59.263Z,3.90
2018-08-18T08:56:33.541Z,4.67
2018-08-18T08:59:02.499Z,5.60
2018-08-18T09:01:31.402Z,5.00
2018-08-18T09:04:00.306Z,5.33
2018-08-18T09:06:29.229Z,5.20
2018-08-18T09:08:59.867Z,4.90
2018-08-18T09:11:29.733Z,4.33
2018-08-18T09:14:02.127Z,2.93
2018-08-18T09:16:32.057Z,2.80
2018-08-18T09:19:01.095Z,4.10
2018-08-18T09:21:37.873Z,3.93
2018-08-18T09:24:07.287Z,3.60
2018-08-18T09:26:41.591Z,3.13
2018-08-18T09:29:10.814Z,3.40
2018-08-18T09:31:39.918Z,3.00
2018-08-18T09:34:08.864Z,2.70
2018-08-18T09:36:37.788Z,3.10
2018-08-18T09:39:10.174Z,2.90
2018-08-18T09:41:39.378Z,3.30
2018-08-18T09:44:14.828Z,2.80
2018-08-18T09:46:44.424Z,2.90
2018-08-18T09:49:13.342Z,3.80
2018-08-18T09:51:42.274Z,3.50
2018-08-18T09:54:11.151Z,3.10
2018-08-18T09:56:40.088Z,3.37
2018-08-18T09:59:09.022Z,4.17
2018-08-18T10:01:37.886Z,3.37
2018-08-18T10:04:07.069Z,2.73
2018-08-18T10:06:35.991Z,2.80
2018-08-18T10:09:07.190Z,4.30
2018-08-18T10:11:36.345Z,3.30
2018-08-18T10:14:05.684Z,3.30
2018-08-18T10:16:34.601Z,3.00
2018-08-18T10:19:03.471Z,3.87
2018-08-18T10:21:32.367Z,3.57
2018-08-18T10:24:01.325Z,3.37
2018-08-18T10:26:30.204Z,4.40
2018-08-18T10:29:12.383Z,3.57
2018-08-18T10:31:56.839Z,4.10
2018-08-18T10:34:33.737Z,3.67
2018-08-18T10:37:07.336Z,3.40
2018-08-18T10:39:37.299Z,3.03
2018-08-18T10:42:15.750Z,3.33
2018-08-18T10:45:02.844Z,3.70
2018-08-18T10:47:31.929Z,3.73
2018-08-18T10:50:11.984Z,4.03
2018-08-18T10:53:01.204Z,3.57
2018-08-18T10:55:31.477Z,4.03
2018-08-18T10:58:05.159Z,4.10
2018-08-18T11:00:34.525Z,3.90
2018-08-18T11:03:04.805Z,4.20
2018-08-18T11:05:33.829Z,3.00
2018-08-18T11:08:09.490Z,3.30
2018-08-18T11:10:40.565Z,3.40
2018-08-18T11:13:09.762Z,4.20
2018-08-18T11:15:39.016Z,3.03
2018-08-18T11:18:08.004Z,3.37
2018-08-18T11:20:36.885Z,3.30
2018-08-18T11:23:07.876Z,3.67
2018-08-18T11:25:42.766Z,3.80
2018-08-18T11:28:12.452Z,3.63
2018-08-18T11:30:41.407Z,3.90
2018-08-18T11:33:10.354Z,4.13
2018-08-18T11:35:39.282Z,3.40
2018-08-18T11:38:11.763Z,3.03
2018-08-18T11:40:40.662Z,2.90
2018-08-18T11:43:11.321Z,3.30
2018-08-18T11:45:41.058Z,2.80
2018-08-18T11:48:15.915Z,3.40
2018-08-18T11:50:45.269Z,3.13
2018-08-18T11:53:14.302Z,3.30
2018-08-18T11:55:43.313Z,3.00
2018-08-18T11:58:14.300Z,3.80
2018-08-18T12:00:48.376Z,3.00
2018-08-18T12:03:19.358Z,3.43
2018-08-18T12:05:50.554Z,2.90
2018-08-18T12:08:20.358Z,2.10
2018-08-18T12:10:50.385Z,2.73
2018-08-18T12:13:21.639Z,2.80
2018-08-18T12:16:01.850Z,2.17
2018-08-18T12:18:31.873Z,2.93
2018-08-18T12:21:01.953Z,2.67
2018-08-18T12:23:31.403Z,2.23
2018-08-18T12:26:05.493Z,3.90
2018-08-18T12:28:39.780Z,2.20
2018-08-18T12:31:10.439Z,2.20
2018-08-18T12:33:39.356Z,2.77
2018-08-18T12:36:08.297Z,2.60
2018-08-18T12:38:37.525Z,2.10
2018-08-18T12:41:06.535Z,2.10
2018-08-18T12:43:39.018Z,2.43
2018-08-18T12:46:10.441Z,2.43
2018-08-18T12:48:41.551Z,2.43
2018-08-18T12:51:11.599Z,2.50
2018-08-18T12:53:45.815Z,2.30
2018-08-18T12:56:17.452Z,2.90
2018-08-18T12:58:46.390Z,1.93
2018-08-18T13:01:42.032Z,1.90
2018-08-18T13:04:16.263Z,2.00
2018-08-18T13:06:46.501Z,1.90
2018-08-18T13:09:18.518Z,2.77
2018-08-18T13:11:48.851Z,2.90
2018-08-18T13:14:20.080Z,2.70
2018-08-18T13:16:49.136Z,1.77
2018-08-18T13:19:19.831Z,1.90
2018-08-18T13:21:48.818Z,2.73
2018-08-18T13:24:18.083Z,2.80
2018-08-18T13:26:47.023Z,2.13
2018-08-18T13:29:15.942Z,1.63
2018-08-18T13:31:45.290Z,2.00
2018-08-18T13:34:15.416Z,2.10
2018-08-18T13:36:45.366Z,1.90
2018-08-18T13:39:15.494Z,2.03
2018-08-18T13:41:45.400Z,1.90
2018-08-18T13:44:23.325Z,1.87
2018-08-18T13:46:52.349Z,1.97
2018-08-18T13:49:23.202Z,2.30
2018-08-18T13:51:52.192Z,2.00
2018-08-18T13:54:21.090Z,2.10
2018-08-18T13:56:49.973Z,2.10
2018-08-18T13:59:42.233Z,1.90
2018-08-18T14:02:11.374Z,2.00
2018-08-18T14:04:40.894Z,2.20
2018-08-18T14:07:10.222Z,2.00
2018-08-18T14:09:41.358Z,2.00
2018-08-18T14:12:13.861Z,1.70
2018-08-18T14:14:42.778Z,2.40
2018-08-18T14:17:11.820Z,2.00
2018-08-18T14:19:40.731Z,2.00
2018-08-18T14:22:10.393Z,2.10
2018-08-18T14:24:40.409Z,2.13
2018-08-18T14:27:13.439Z,2.10
2018-08-18T14:29:42.372Z,2.03
2018-08-18T14:32:16.745Z,1.80
2018-08-18T14:34:53.853Z,2.10
2018-08-18T14:37:22.740Z,1.97
2018-08-18T14:39:51.627Z,2.20
2018-08-18T14:42:20.525Z,2.43
2018-08-18T14:44:49.500Z,2.20
2018-08-18T14:47:18.344Z,1.90
2018-08-18T14:49:47.222Z,1.73
2018-08-18T14:52:16.106Z,1.80
2018-08-18T14:54:44.975Z,1.73
2018-08-18T14:57:13.897Z,2.03
2018-08-18T14:59:42.797Z,1.70
2018-08-18T15:02:11.723Z,2.20
2018-08-18T15:04:40.668Z,1.63
2018-08-18T15:07:09.575Z,2.00
2018-08-18T15:09:42.769Z,1.90
2018-08-18T15:12:11.688Z,2.10
2018-08-18T15:14:40.627Z,1.80
2018-08-18T15:17:09.536Z,1.50
2018-08-18T15:19:38.690Z,2.03
2018-08-18T15:22:08.941Z,1.33
2018-08-18T15:24:38.047Z,1.67
2018-08-18T15:27:07.004Z,1.70
2018-08-18T15:29:35.975Z,1.37
2018-08-18T15:32:05.003Z,1.40
2018-08-18T15:34:33.931Z,1.80
2018-08-18T15:37:03.026Z,1.60
2018-08-18T15:39:31.951Z,1.40
2018-08-18T15:42:01.552Z,1.53
2018-08-18T15:44:30.429Z,1.73
2018-08-18T15:46:59.543Z,1.50
2018-08-18T15:49:28.511Z,1.80
2018-08-18T15:51:57.415Z,1.57
2018-08-18T15:54:26.426Z,1.20
2018-08-18T15:56:55.217Z,1.50
2018-08-18T15:59:24.127Z,1.60
2018-08-18T16:01:53.160Z,2.00
2018-08-18T16:04:22.031Z,1.50
2018-08-18T16:06:50.937Z,1.50
2018-08-18T16:09:19.861Z,1.57
2018-08-18T16:11:48.782Z,1.83
2018-08-18T16:14:17.663Z,1.60
2018-08-18T16:16:57.076Z,1.70
2018-08-18T16:19:25.994Z,1.37
2018-08-18T16:21:54.870Z,1.47
2018-08-18T16:24:40.473Z,1.63
2018-08-18T16:27:09.395Z,2.13
2018-08-18T16:29:38.642Z,2.00
2018-08-18T16:32:27.469Z,1.80
2018-08-18T16:35:01.893Z,2.00
2018-08-18T16:37:31.117Z,2.13
2018-08-18T16:39:59.988Z,1.97
2018-08-18T16:42:29.231Z,2.33
2018-08-18T16:44:58.229Z,2.20
2018-08-18T16:47:27.352Z,2.47
2018-08-18T16:49:56.335Z,2.37
2018-08-18T16:52:25.215Z,2.20
2018-08-18T16:54:54.180Z,2.80
2018-08-18T16:57:24.020Z,2.70
2018-08-18T16:59:52.916Z,2.83
2018-08-18T17:02:35.215Z,2.53
2018-08-18T17:05:04.887Z,2.70
2018-08-18T17:07:33.782Z,2.83
2018-08-18T17:10:02.677Z,2.30
2018-08-18T17:12:31.900Z,2.90
2018-08-18T17:15:00.800Z,2.40
2018-08-18T17:17:29.712Z,2.63
2018-08-18T17:19:58.617Z,2.30
2018-08-18T17:22:27.512Z,3.03
2018-08-18T17:24:56.478Z,3.13
2018-08-18T17:27:28.068Z,3.17
2018-08-18T17:29:56.946Z,2.93
2018-08-18T17:32:26.663Z,3.10
2018-08-18T17:34:55.541Z,3.00
2018-08-18T17:37:24.461Z,3.07
2018-08-18T17:39:53.395Z,2.80
2018-08-18T17:42:22.778Z,3.00
2018-08-18T17:44:51.685Z,3.10
2018-08-18T17:47:21.601Z,3.10
2018-08-18T17:49:54.657Z,2.97
2018-08-18T17:52:23.802Z,2.87
2018-08-18T17:55:05.648Z,2.93
2018-08-18T17:57:36.176Z,3.10
2018-08-18T18:00:16.166Z,2.97
2018-08-18T18:02:51.086Z,3.10
2018-08-18T18:05:22.410Z,2.63
2018-08-18T18:07:53.479Z,3.10
2018-08-18T18:10:22.484Z,3.30
2018-08-18T18:12:51.298Z,3.10
2018-08-18T18:15:41.100Z,3.37
2018-08-18T18:18:11.576Z,3.40
2018-08-18T18:20:42.663Z,3.33
2018-08-18T18:23:14.137Z,3.23
2018-08-18T18:25:44.165Z,3.50
2018-08-18T18:28:20.734Z,3.70
2018-08-18T18:30:52.272Z,4.00
2018-08-18T18:33:21.280Z,3.37
2018-08-18T18:35:50.847Z,3.23
2018-08-18T18:38:19.809Z,3.50
2018-08-18T18:40:48.679Z,4.13
2018-08-18T18:43:17.710Z,3.63
2018-08-18T18:45:46.768Z,3.63
2018-08-18T18:48:17.223Z,4.07
2018-08-18T18:50:47.881Z,3.93
2018-08-18T18:53:17.865Z,3.50
2018-08-18T18:55:51.822Z,3.93
2018-08-18T18:58:20.816Z,4.33
2018-08-18T19:01:01.349Z,4.20
2018-08-18T19:03:30.390Z,4.67
2018-08-18T19:05:59.307Z,5.03
2018-08-18T19:08:28.240Z,4.73
2018-08-18T19:10:57.229Z,4.93
2018-08-18T19:13:27.053Z,5.03
2018-08-18T19:15:55.963Z,5.23
2018-08-18T19:18:24.845Z,5.33
2018-08-18T19:20:53.740Z,5.60
2018-08-18T19:23:22.744Z,5.20
2018-08-18T19:25:52.082Z,5.10
2018-08-18T19:28:22.371Z,5.57
2018-08-18T19:30:51.297Z,5.50
2018-08-18T19:33:20.372Z,5.93
2018-08-18T19:35:51.750Z,6.00
2018-08-18T19:38:21.581Z,5.60
2018-08-18T19:40:52.064Z,5.90
2018-08-18T19:43:22.119Z,5.50
2018-08-18T19:45:51.341Z,5.47
2018-08-18T19:48:21.920Z,5.90
2018-08-18T19:50:56.855Z,5.73
2018-08-18T19:53:29.104Z,5.80
2018-08-18T19:55:59.245Z,5.60
2018-08-18T19:58:28.887Z,5.93
2018-08-18T20:00:57.887Z,6.00
2018-08-18T20:03:26.986Z,5.77
2018-08-18T20:05:55.979Z,6.90
2018-08-18T20:08:26.306Z,6.20
2018-08-18T20:11:01.499Z,6.07
2018-08-18T20:13:31.716Z,6.33
2018-08-18T20:16:03.058Z,6.30
2018-08-18T20:18:32.628Z,5.37
2018-08-18T20:21:01.446Z,5.80
2018-08-18T20:23:30.457Z,5.67
2018-08-18T20:26:01.737Z,5.70
2018-08-18T20:28:30.622Z,5.73
2018-08-18T20:30:59.537Z,5.47
2018-08-18T20:33:28.479Z,6.07
2018-08-18T20:35:57.371Z,6.20
2018-08-18T20:38:31.500Z,6.23
2018-08-18T20:41:00.500Z,5.97
2018-08-18T20:43:29.658Z,5.80
2018-08-18T20:45:58.580Z,5.80
2018-08-18T20:48:28.496Z,5.57
2018-08-18T20:50:57.486Z,5.97
2018-08-18T20:53:27.725Z,5.70
2018-08-18T20:56:00.019Z,5.70
2018-08-18T20:58:29.602Z,5.90
2018-08-18T21:00:58.505Z,6.00
2018-08-18T21:03:44.945Z,5.73
2018-08-18T21:06:14.708Z,6.00
2018-08-18T21:08:43.577Z,6.03
2018-08-18T21:11:12.445Z,6.30
2018-08-18T21:13:41.404Z,6.47
2018-08-18T21:16:11.408Z,5.40
2018-08-18T21:18:40.352Z,5.97
2018-08-18T21:21:39.912Z,5.93
2018-08-18T21:24:08.852Z,6.00
2018-08-18T21:26:37.881Z,5.87
2018-08-18T21:29:06.879Z,6.10
2018-08-18T21:31:37.056Z,6.07
2018-08-18T21:34:07.212Z,6.30
2018-08-18T21:36:36.579Z,5.97
2018-08-18T21:39:07.725Z,6.40
2018-08-18T21:41:37.127Z,5.93
2018-08-18T21:44:07.280Z,6.47
2018-08-18T21:46:36.126Z,6.70
2018-08-18T21:49:05.056Z,6.00
2018-08-18T21:51:33.988Z,6.30
2018-08-18T21:54:02.931Z,6.40
2018-08-18T21:56:42.861Z,6.13
2018-08-18T21:59:13.839Z,5.77
2018-08-18T22:01:42.849Z,6.40
2018-08-18T22:04:11.782Z,6.07
2018-08-18T22:06:40.717Z,6.10
2018-08-18T22:09:23.960Z,6.67
2018-08-18T22:11:52.958Z,6.23
2018-08-18T22:14:21.874Z,6.07
2018-08-18T22:16:56.215Z,6.27
2018-08-18T22:19:27.063Z,6.10
2018-08-18T22:21:55.985Z,6.60
2018-08-18T22:24:24.982Z,6.43
2018-08-18T22:26:54.477Z,6.30
2018-08-18T22:29:24.258Z,6.47
2018-08-18T22:31:53.187Z,6.07
2018-08-18T22:34:22.108Z,6.70
2018-08-18T22:36:54.673Z,6.07
2018-08-18T22:39:23.635Z,5.83
2018-08-18T22:41:52.529Z,6.60
2018-08-18T22:44:21.472Z,6.47
2018-08-18T22:46:50.360Z,6.87
2018-08-18T22:49:19.247Z,6.90
2018-08-18T22:51:48.248Z,6.43
2018-08-18T22:54:17.132Z,6.70
2018-08-18T22:56:50.179Z,6.07
2018-08-18T22:59:19.069Z,6.50
2018-08-18T23:01:48.075Z,6.43
2018-08-18T23:04:28.455Z,6.47
2018-08-18T23:06:57.950Z,6.57
2018-08-18T23:09:27.659Z,6.33
2018-08-18T23:12:00.413Z,6.37
2018-08-18T23:14:32.703Z,6.87
2018-08-18T23:17:01.932Z,6.63
2018-08-18T23:19:32.065Z,7.23
2018-08-18T23:22:01.430Z,6.70
2018-08-18T23:24:33.051Z,7.17
2018-08-18T23:27:02.566Z,6.87
2018-08-18T23:29:31.484Z,6.63
2018-08-18T23:32:04.111Z,6.97
2018-08-18T23:34:33.080Z,6.67
2018-08-18T23:37:01.946Z,6.53
2018-08-18T23:39:30.926Z,6.50
2018-08-18T23:42:11.097Z,6.63
2018-08-18T23:44:40.050Z,6.37
2018-08-18T23:47:08.935Z,6.30
2018-08-18T23:49:37.794Z,7.07
2018-08-18T23:52:06.995Z,7.00
2018-08-18T23:54:35.947Z,6.67
2018-08-18T23:57:04.925Z,6.67
2018-08-18T23:59:33.833Z,6.80
